Time;durP1;ratioP1;P1;durP2;ratioP2;P2;SDS_P1;SDS_P2;PMS_P1;PMS_P2;Temp;Humidity;BMP_temperature;BMP_pressure;BME280_temperature;BME280_humidity;BME280_pressure;Samples;Min_cycle;Max_cycle;Signal;HPM_P1;HPM_P2
2022/08/23 00:01:34;;;;;;;2.87;1.73;;;16.90;95.40;;;16.78;75.82;97131.16;5024922;28;20128;-44
2022/08/23 00:04:06;;;;;;;3.30;2.08;;;16.90;95.60;;;16.77;75.76;97128.59;5023536;28;20083;-45
2022/08/23 00:06:32;;;;;;;3.72;1.83;;;16.80;95.50;;;16.74;76.08;97121.69;5024139;28;20065;-45
2022/08/23 00:08:58;;;;;;;2.58;1.70;;;16.80;95.70;;;16.71;76.74;97129.00;5024192;28;20036;-45
2022/08/23 00:11:33;;;;;;;2.20;1.50;;;16.80;95.90;;;16.67;76.94;97124.81;5025486;28;20030;-44
2022/08/23 00:14:06;;;;;;;7.57;2.08;;;16.80;96.10;;;16.64;77.10;97128.56;5024425;28;20151;-45
2022/08/23 00:16:32;;;;;;;2.63;1.90;;;16.70;96.10;;;16.60;76.72;97117.25;5026596;28;20029;-45
2022/08/23 00:18:57;;;;;;;3.38;2.22;;;16.70;96.10;;;16.62;76.55;97125.16;5014291;28;20040;-45
2022/08/23 00:21:23;;;;;;;4.90;2.15;;;16.70;96.00;;;16.60;76.54;97121.72;5024716;28;20468;-47
2022/08/23 00:23:49;;;;;;;3.30;1.90;;;16.70;96.10;;;16.59;76.58;97120.84;5025465;28;20021;-45
2022/08/23 00:26:16;;;;;;;5.18;1.88;;;16.70;96.10;;;16.54;77.32;97112.31;5024730;28;20041;-46
2022/08/23 00:28:42;;;;;;;3.20;1.90;;;16.60;96.40;;;16.49;77.88;97118.91;5023726;28;20485;-47
2022/08/23 00:31:08;;;;;;;2.05;1.70;;;16.60;96.60;;;16.40;78.71;97113.25;5024049;28;20072;-45
2022/08/23 00:33:34;;;;;;;3.08;1.90;;;16.50;96.80;;;16.36;79.06;97113.53;5026548;28;20053;-44
2022/08/23 00:35:59;;;;;;;3.83;1.67;;;16.50;97.10;;;16.30;79.46;97113.94;5013392;28;20022;-45
2022/08/23 00:38:25;;;;;;;3.00;1.90;;;16.40;97.20;;;16.22;79.92;97120.59;5024745;28;20025;-45
2022/08/23 00:40:52;;;;;;;3.00;1.83;;;16.40;97.40;;;16.19;80.19;97117.28;5023679;28;20409;-45
2022/08/23 00:49:34;;;;;;;6.00;1.77;;;16.20;97.80;;;16.06;80.88;97106.59;5019039;28;20060;-45
2022/08/23 00:52:44;;;;;;;2.25;1.73;;;16.20;98.00;;;16.00;81.15;97110.47;5015070;28;20385;-44
2022/08/23 00:55:11;;;;;;;3.67;1.85;;;16.10;98.10;;;15.97;81.40;97113.34;5014670;28;20030;-44
2022/08/23 00:57:37;;;;;;;2.88;1.77;;;16.10;98.30;;;15.93;81.81;97109.13;5025256;28;20029;-45
2022/08/23 01:00:07;;;;;;;2.78;1.70;;;16.10;98.50;;;15.93;81.92;97117.13;5009428;28;20036;-45
2022/08/23 01:02:33;;;;;;;3.22;1.70;;;16.00;98.60;;;15.94;81.69;97118.84;5023847;28;20029;-47
2022/08/23 01:05:00;;;;;;;3.28;1.75;;;16.10;98.60;;;15.94;81.75;97115.34;5011458;28;20021;-46
2022/08/23 01:07:38;;;;;;;3.55;1.92;;;16.00;98.60;;;15.97;81.35;97113.34;5023658;28;20032;-46
2022/08/23 01:10:15;;;;;;;2.63;1.73;;;16.10;98.60;;;15.95;81.95;97120.56;5011770;28;20100;-44
2022/08/23 01:12:49;;;;;;;2.17;1.50;;;16.00;98.80;;;15.89;82.43;97115.59;5013131;28;20265;-44
2022/08/23 01:15:23;;;;;;;2.33;1.80;;;16.00;99.00;;;15.81;83.19;97113.44;5011747;28;20309;-44
2022/08/23 01:17:56;;;;;;;2.53;1.67;;;15.90;99.30;;;15.73;83.70;97110.34;4995529;28;20033;-45
2022/08/23 01:20:23;;;;;;;;;;;15.90;99.50;;;15.66;84.34;97101.06;5012793;28;20102;-44
2022/08/23 01:23:03;;;;;;;5.30;2.03;;;15.90;99.70;;;15.71;83.88;97109.59;5013825;28;20199;-45
2022/08/23 01:25:32;;;;;;;2.38;1.85;;;15.90;99.80;;;15.73;83.97;97112.16;5023237;28;20025;-47
2022/08/23 01:27:59;;;;;;;3.92;2.60;;;15.80;99.90;;;15.70;84.44;97110.53;5013000;28;20822;-44
2022/08/23 01:30:31;;;;;;;2.80;2.03;;;15.90;99.90;;;15.67;85.13;97116.06;5023674;28;20480;-45
2022/08/23 01:32:58;;;;;;;;;;;15.80;99.90;;;15.63;85.71;97110.09;5023179;28;20064;-46
2022/08/23 01:39:06;;;;;;;2.95;1.98;;;15.70;99.90;;;15.58;86.89;97121.97;5015952;28;20079;-45
2022/08/23 01:41:33;;;;;;;4.10;2.30;;;15.70;99.90;;;15.55;86.69;97112.34;5023045;28;20037;-45
2022/08/23 01:43:59;;;;;;;3.78;2.10;;;15.70;99.90;;;15.52;86.86;97112.53;5020801;28;20494;-45
2022/08/23 01:46:25;;;;;;;2.28;1.75;;;15.70;99.90;;;15.52;86.74;97122.31;5024539;28;20025;-48
2022/08/23 01:48:54;;;;;;;2.42;1.80;;;15.60;99.90;;;15.51;86.49;97120.63;5023749;28;20032;-49
2022/08/23 01:51:21;;;;;;;3.83;2.13;;;15.70;99.90;;;15.49;87.09;97120.72;5023675;28;20553;-45
2022/08/23 01:53:46;;;;;;;3.28;2.22;;;15.60;99.90;;;15.46;87.75;97127.06;5022989;28;20108;-49
2022/08/23 01:56:14;;;;;;;3.17;2.10;;;15.60;99.90;;;15.40;87.85;97122.13;5023148;28;20120;-48
2022/08/23 01:58:39;;;;;;;3.50;2.38;;;15.60;99.90;;;15.40;88.47;97126.59;5035342;22;20069;-58
2022/08/23 02:01:05;;;;;;;3.05;2.42;;;15.50;99.90;;;15.38;88.66;97132.00;5020639;28;20481;-58
2022/08/23 02:03:32;;;;;;;3.35;2.38;;;15.50;99.90;;;15.35;89.07;97137.50;5020806;28;20025;-58
2022/08/23 02:05:58;;;;;;;5.18;2.42;;;15.50;99.90;;;15.32;89.44;97135.00;5022086;28;20029;-58
2022/08/23 02:11:13;;;;;;;3.40;2.08;;;15.50;99.90;;;15.27;89.97;97137.97;5020638;28;20112;-58
2022/08/23 02:13:40;;;;;;;3.40;2.30;;;15.40;99.90;;;15.28;89.93;97133.50;5020851;28;20032;-58
2022/08/23 02:16:07;;;;;;;3.65;2.20;;;15.40;99.90;;;15.25;89.97;97131.00;5003096;28;20048;-58
2022/08/23 02:18:33;;;;;;;5.28;2.40;;;15.40;99.90;;;15.23;89.71;97131.09;5024655;28;20125;-58
2022/08/23 02:20:59;;;;;;;4.88;2.17;;;15.40;99.90;;;15.22;89.61;97131.22;5006644;28;20342;-58
2022/08/23 02:23:26;;;;;;;3.90;2.20;;;15.40;99.90;;;15.20;89.57;97141.06;5023112;28;20038;-58
2022/08/23 02:25:52;;;;;;;3.88;2.10;;;15.30;99.90;;;15.18;89.85;97129.66;5022594;28;20044;-58
2022/08/23 02:28:19;;;;;;;2.45;1.80;;;15.30;99.90;;;15.17;89.79;97130.63;5024119;28;20022;-58
2022/08/23 02:30:46;;;;;;;3.95;2.10;;;15.30;99.90;;;15.15;90.45;97127.22;5023164;28;20018;-58
2022/08/23 02:33:13;;;;;;;3.53;2.05;;;15.30;99.90;;;15.12;90.79;97132.72;4988762;28;20072;-58
2022/08/23 02:35:40;;;;;;;2.60;1.88;;;15.30;99.90;;;15.07;90.84;97133.84;5024966;28;20033;-58
2022/08/23 02:38:10;;;;;;;3.53;2.15;;;15.30;99.90;;;15.10;90.66;97137.25;5022309;28;20029;-58
2022/08/23 02:40:37;;;;;;;3.38;1.90;;;15.30;99.90;;;15.07;91.24;97136.50;5023657;28;20029;-58
2022/08/23 02:43:05;;;;;;;4.07;2.20;;;15.30;99.90;;;15.05;91.60;97141.03;5018951;28;20033;-58
2022/08/23 02:45:31;;;;;;;3.17;2.30;;;15.20;99.90;;;15.05;91.72;97133.06;5021683;28;20490;-58
2022/08/23 02:47:57;;;;;;;3.42;2.28;;;15.20;99.90;;;15.04;91.87;97130.50;5022472;28;20080;-58
2022/08/23 02:50:23;;;;;;;4.07;2.38;;;15.20;99.90;;;15.03;91.86;97131.44;5023061;28;20029;-58
2022/08/23 02:52:49;;;;;;;4.47;2.58;;;15.20;99.90;;;15.00;91.85;97140.47;5024051;28;20041;-58
2022/08/23 02:55:15;;;;;;;3.15;2.20;;;15.20;99.90;;;14.85;91.75;97123.59;5023575;28;20033;-58
2022/08/23 02:57:41;;;;;;;3.55;2.22;;;15.20;99.90;;;14.94;91.96;97140.81;5022108;28;20041;-58
2022/08/23 03:00:10;;;;;;;4.00;2.38;;;15.10;99.90;;;14.93;92.14;97139.13;5022849;28;20528;-58
2022/08/23 03:02:37;;;;;;;4.47;2.53;;;15.10;99.90;;;14.92;92.32;97149.81;5023295;28;20030;-58
2022/08/23 03:05:05;;;;;;;3.55;2.40;;;15.10;99.90;;;14.87;92.23;97147.41;5021931;28;20034;-58
2022/08/23 03:07:31;;;;;;;3.20;2.25;;;15.00;99.90;;;14.85;92.09;97144.00;5022791;28;20110;-58
2022/08/23 03:09:57;;;;;;;6.78;2.28;;;15.00;99.90;;;14.83;91.75;97148.56;5005384;28;20053;-58
2022/08/23 03:12:23;;;;;;;3.58;1.80;;;15.00;99.90;;;14.83;91.45;97140.59;5022449;28;20029;-58
2022/08/23 03:14:50;;;;;;;3.20;2.25;;;15.00;99.90;;;14.84;91.38;97142.28;5023764;28;20076;-58
2022/08/23 03:17:17;;;;;;;4.50;2.05;;;15.00;99.90;;;14.84;91.14;97139.63;5002840;28;20116;-58
2022/08/23 03:19:42;;;;;;;4.30;2.10;;;15.00;99.90;;;14.84;91.17;97145.81;5005995;28;20120;-58
2022/08/23 03:22:08;;;;;;;2.30;1.77;;;15.00;99.90;;;14.83;90.90;97144.09;5023104;28;20132;-59
2022/08/23 03:24:35;;;;;;;3.53;2.22;;;15.00;99.90;;;14.89;90.18;97150.84;5022627;28;20029;-59
2022/08/23 03:27:01;;;;;;;3.30;1.95;;;15.10;99.90;;;14.95;89.31;97147.84;5019723;28;20033;-59
2022/08/23 03:29:27;;;;;;;2.28;1.77;;;15.10;99.90;;;14.98;88.99;97142.31;5023029;28;20087;-59
2022/08/23 03:31:53;;;;;;;2.72;2.10;;;15.10;99.90;;;15.06;88.43;97147.22;5022440;28;20033;-60
2022/08/23 03:34:19;;;;;;;4.07;2.25;;;15.20;99.90;;;15.13;87.38;97147.69;5020232;28;20516;-59
2022/08/23 03:36:45;;;;;;;5.35;1.95;;;15.30;99.90;;;15.16;86.86;97142.19;5023009;28;20041;-59
2022/08/23 03:39:11;;;;;;;4.05;2.00;;;15.30;99.90;;;15.22;86.22;97150.66;5023112;28;20033;-59
2022/08/23 03:41:36;;;;;;;2.85;1.98;;;15.40;99.90;;;15.26;85.60;97151.34;5020306;28;20037;-59
2022/08/23 03:44:02;;;;;;;2.17;1.80;;;15.40;99.90;;;15.26;85.63;97154.00;5020492;28;20056;-59
2022/08/23 03:46:28;;;;;;;3.72;2.00;;;15.40;99.90;;;15.27;85.18;97156.56;5020459;28;20024;-59
2022/08/23 03:48:58;;;;;;;4.20;2.28;;;15.40;99.90;;;15.26;85.47;97157.50;5023068;28;20029;-59
2022/08/23 03:51:26;;;;;;;3.80;1.98;;;15.40;99.90;;;15.25;85.77;97155.81;5021591;28;20022;-59
2022/08/23 03:53:52;;;;;;;3.47;1.90;;;15.40;99.90;;;15.24;85.65;97150.56;5023118;28;20103;-59
2022/08/23 03:56:25;;;;;;;2.40;1.65;;;15.40;99.90;;;15.23;85.43;97159.47;5019742;28;20367;-59
2022/08/23 03:58:52;;;;;;;3.50;1.73;;;15.40;99.90;;;15.23;85.53;97167.44;5021204;28;20515;-59
2022/08/23 04:01:18;;;;;;;3.10;1.80;;;15.40;99.90;;;15.23;85.45;97170.09;5022088;28;20212;-59
2022/08/23 04:03:44;;;;;;;3.88;1.98;;;15.40;99.90;;;15.21;85.17;97166.69;5021587;28;20055;-59
2022/08/23 04:06:10;;;;;;;3.75;2.10;;;15.40;99.90;;;15.15;85.41;97159.09;5022102;28;20025;-59
2022/08/23 04:08:36;;;;;;;3.42;1.90;;;15.40;99.90;;;15.21;85.89;97172.84;5022206;28;20033;-59
2022/08/23 04:11:03;;;;;;;4.07;2.00;;;15.40;99.90;;;15.18;86.07;97183.69;5021853;28;20047;-59
2022/08/23 04:13:28;;;;;;;3.92;1.92;;;15.30;99.90;;;15.13;86.37;97176.91;5021756;28;20034;-59
2022/08/23 04:15:56;;;;;;;2.10;1.90;;;15.30;99.90;;;15.10;86.74;97177.09;5002327;28;20084;-59
2022/08/23 04:18:22;;;;;;;1.95;1.75;;;15.30;99.90;;;15.05;86.97;97177.34;5022573;28;20536;-59
2022/08/23 04:20:50;;;;;;;2.65;1.80;;;15.20;99.90;;;14.97;87.23;97180.47;5021339;28;20040;-59
2022/08/23 04:23:15;;;;;;;2.97;1.92;;;15.20;99.90;;;14.92;87.75;97179.88;5021556;28;20091;-59
2022/08/23 04:25:44;;;;;;;3.05;2.20;;;15.10;99.90;;;14.87;87.99;97180.13;5021306;28;20029;-59
2022/08/23 04:28:10;;;;;;;2.50;2.00;;;15.00;99.90;;;14.81;88.83;97184.97;5021453;28;20036;-59
2022/08/23 04:30:36;;;;;;;3.03;1.95;;;15.00;99.90;;;14.75;90.04;97180.84;5020252;28;20053;-59
2022/08/23 04:33:02;;;;;;;3.03;2.42;;;14.90;99.90;;;14.73;90.67;97181.88;5020698;28;20243;-59
2022/08/23 04:35:28;;;;;;;2.80;2.22;;;14.90;99.90;;;14.70;91.51;97190.88;5022011;28;20029;-59
2022/08/23 04:37:54;;;;;;;4.18;2.55;;;14.80;99.90;;;14.67;92.36;97189.25;5022626;28;20053;-59
2022/08/23 04:43:04;;;;;;;3.30;2.58;;;14.80;99.90;;;14.68;92.98;97200.72;5020847;28;20040;-59
2022/08/23 04:45:31;;;;;;;4.57;2.15;;;14.90;99.90;;;14.58;93.42;97179.16;5020627;28;20026;-59
2022/08/23 04:47:57;;;;;;;4.43;2.60;;;14.90;99.90;;;14.72;93.52;97199.59;5022337;28;20013;-59
2022/08/23 04:50:22;;;;;;;3.30;2.28;;;14.90;99.90;;;14.76;92.90;97210.91;5020675;28;20082;-59
2022/08/23 04:52:48;;;;;;;4.35;2.70;;;14.90;99.90;;;14.77;93.04;97204.63;5021772;28;20132;-59
2022/08/23 04:55:15;;;;;;;4.63;2.50;;;15.00;99.90;;;14.85;92.63;97211.22;5019443;28;20220;-59
2022/08/23 04:57:41;;;;;;;5.05;2.50;;;15.00;99.90;;;14.91;92.78;97219.78;5003397;28;20067;-59
2022/08/23 05:00:13;;;;;;;5.65;2.40;;;15.10;99.90;;;14.95;92.79;97218.66;5022212;28;20021;-59
2022/08/23 05:02:39;;;;;;;3.83;2.47;;;15.10;99.90;;;15.00;92.56;97217.47;5021416;28;20053;-59
2022/08/23 05:05:07;;;;;;;5.03;2.60;;;15.20;99.90;;;15.03;92.26;97217.28;5019004;28;20033;-59
2022/08/23 05:07:33;;;;;;;5.13;2.60;;;15.20;99.90;;;15.10;91.92;97217.78;5021320;28;20099;-59
2022/08/23 05:09:59;;;;;;;5.28;2.35;;;15.20;99.90;;;15.14;91.85;97224.63;5019979;28;20112;-59
2022/08/23 05:12:24;;;;;;;4.97;2.70;;;15.30;99.90;;;15.22;91.33;97216.22;5020676;28;20029;-59
2022/08/23 05:14:50;;;;;;;5.70;2.63;;;15.40;99.90;;;15.28;90.65;97221.16;5019007;28;20025;-59
2022/08/23 05:17:17;;;;;;;7.03;2.13;;;15.40;99.90;;;15.38;90.00;97224.13;5020678;28;20033;-59
2022/08/23 05:19:43;;;;;;;4.47;2.20;;;15.50;99.90;;;15.43;89.67;97222.94;5019822;28;20037;-59
2022/08/23 05:22:09;;;;;;;4.82;2.45;;;15.60;99.90;;;15.52;89.00;97224.16;5021128;28;20827;-59
2022/08/23 05:24:34;;;;;;;3.95;2.00;;;15.70;99.90;;;15.60;88.20;97229.88;5021158;28;20048;-59
2022/08/23 05:27:00;;;;;;;4.45;2.42;;;15.80;99.90;;;15.68;88.09;97223.25;5019353;28;20392;-59
2022/08/23 05:29:26;;;;;;;3.55;2.13;;;15.80;99.90;;;15.75;87.92;97229.94;5020416;28;20068;-59
2022/08/23 05:31:51;;;;;;;2.90;2.20;;;15.90;99.90;;;15.81;87.49;97225.13;5018786;28;20033;-59
2022/08/23 05:34:17;;;;;;;4.47;2.40;;;16.00;99.90;;;15.90;87.33;97228.13;5020666;28;20025;-60
2022/08/23 05:36:43;;;;;;;4.93;2.88;;;16.00;99.90;;;15.98;86.75;97234.69;5020205;28;20416;-59
2022/08/23 05:39:08;;;;;;;3.60;2.45;;;16.20;99.90;;;16.07;86.39;97229.78;5019123;28;20021;-60
2022/08/23 05:41:34;;;;;;;3.22;2.55;;;16.20;99.90;;;16.14;85.84;97234.63;5020982;28;20124;-59
2022/08/23 05:44:00;;;;;;;6.78;2.97;;;16.30;99.90;;;16.23;85.20;97236.69;5018937;28;20076;-60
2022/08/23 05:46:25;;;;;;;7.70;2.90;;;16.40;99.90;;;16.30;84.83;97237.19;5019852;28;20474;-60
2022/08/23 05:48:52;;;;;;;4.85;2.70;;;16.50;99.90;;;16.39;84.32;97236.59;5003089;28;20018;-60
2022/08/23 05:51:22;;;;;;;4.72;2.58;;;16.60;99.90;;;16.47;83.62;97236.09;5004126;28;20038;-60
2022/08/23 05:53:50;;;;;;;8.25;2.55;;;16.60;99.90;;;16.55;83.07;97247.13;5026179;28;20036;-60
2022/08/23 05:56:33;;;;;;;3.38;2.60;;;16.70;99.90;;;16.63;82.16;97243.97;5022633;28;20029;-60
2022/08/23 05:59:05;;;;;;;4.35;2.88;;;16.80;99.90;;;16.70;81.31;97247.09;5024023;28;20037;-60
2022/08/23 06:01:32;;;;;;;2.97;2.20;;;16.90;99.90;;;16.76;81.42;97254.69;5024297;28;20026;-59
2022/08/23 06:04:00;;;;;;;2.97;2.38;;;16.90;99.90;;;16.83;81.02;97255.16;5023516;28;20025;-60
2022/08/23 06:06:26;;;;;;;4.95;2.20;;;17.00;99.90;;;16.92;80.05;97258.13;5023673;28;20088;-60
2022/08/23 06:08:52;;;;;;;2.83;2.10;;;17.10;99.90;;;16.98;79.88;97257.72;5026383;28;20053;-59
2022/08/23 06:11:25;;;;;;;3.13;1.90;;;17.20;99.90;;;17.08;79.56;97260.63;5023080;28;20030;-60
2022/08/23 06:13:57;;;;;;;3.67;2.13;;;17.30;99.90;;;17.18;79.29;97260.91;5024091;28;20473;-60
2022/08/23 06:16:31;;;;;;;6.15;2.80;;;17.40;99.90;;;17.26;78.29;97266.56;5023843;28;20048;-59
2022/08/23 06:18:58;;;;;;;4.20;2.22;;;17.40;99.90;;;17.34;77.82;97266.91;5025255;28;20021;-60
2022/08/23 06:21:25;;;;;;;4.60;2.60;;;17.50;99.90;;;17.43;77.58;97261.94;5024315;28;20505;-60
2022/08/23 06:23:51;;;;;;;4.10;2.35;;;17.60;99.90;;;17.51;77.12;97262.25;5006565;28;20032;-59
2022/08/23 06:26:25;;;;;;;6.05;2.90;;;17.70;99.90;;;17.59;76.16;97269.75;5022917;28;20026;-60
2022/08/23 06:28:54;;;;;;;5.40;3.03;;;17.80;99.90;;;17.66;75.65;97263.06;5024661;28;20034;-59
2022/08/23 06:34:24;;;;;;;3.35;2.30;;;17.90;99.90;;;17.84;74.00;97266.28;5022852;28;20091;-59
2022/08/23 06:36:55;;;;;;;6.45;2.47;;;18.00;99.90;;;17.92;73.92;97269.28;5006272;28;20028;-60
2022/08/23 06:39:26;;;;;;;4.65;2.10;;;18.10;99.90;;;18.01;73.56;97265.97;5006154;28;20331;-60
2022/08/23 06:41:52;;;;;;;3.15;2.22;;;18.20;99.90;;;18.08;73.18;97264.59;5023402;28;20033;-59
2022/08/23 06:44:19;;;;;;;4.45;2.30;;;18.30;99.90;;;18.17;73.03;97273.78;5022212;28;20029;-60
2022/08/23 06:46:47;;;;;;;5.70;2.80;;;18.30;99.90;;;18.23;72.59;97269.81;5023756;28;20045;-59
2022/08/23 06:49:14;;;;;;;3.60;2.40;;;18.40;99.90;;;18.33;72.03;97275.41;5022697;28;20080;-59
2022/08/23 06:51:43;;;;;;;4.68;2.45;;;18.50;99.90;;;18.41;71.84;97275.69;5024275;28;20028;-59
2022/08/23 06:54:12;;;;;;;7.15;3.08;;;18.60;99.90;;;18.49;71.54;97276.84;5022044;28;20025;-59
2022/08/23 06:56:40;;;;;;;4.95;2.55;;;18.70;99.90;;;18.53;71.62;97271.31;5022500;28;20100;-59
2022/08/23 06:59:06;;;;;;;6.63;2.53;;;18.80;99.90;;;18.63;70.87;97278.56;5023113;28;20033;-60
2022/08/23 07:01:47;;;;;;;6.95;2.53;;;18.80;99.90;;;18.73;71.17;97280.56;5022484;28;20031;-60
2022/08/23 07:04:16;;;;;;;4.65;2.00;;;18.90;99.90;;;18.83;70.79;97285.16;5003458;28;20018;-60
2022/08/23 07:06:42;;;;;;;4.28;2.38;;;19.00;99.90;;;18.99;70.31;97284.06;5024498;28;20072;-60
2022/08/23 07:09:08;;;;;;;4.50;2.83;;;19.10;99.90;;;19.12;68.90;97282.19;5022511;28;20021;-59
2022/08/23 07:11:35;;;;;;;4.22;2.60;;;19.30;99.90;;;19.26;68.00;97283.84;5023790;28;20026;-59
2022/08/23 07:14:05;;;;;;;3.92;2.20;;;19.40;99.50;;;19.38;67.55;97282.06;5021661;28;20040;-59
2022/08/23 07:16:34;;;;;;;5.53;2.67;;;19.50;99.30;;;19.56;66.69;97286.06;5023902;28;20497;-59
2022/08/23 07:19:00;;;;;;;4.10;2.40;;;19.70;99.00;;;19.67;66.34;97295.06;5003225;28;20017;-59
2022/08/23 07:21:25;;;;;;;5.55;2.20;;;19.80;98.80;;;19.75;65.77;97290.03;5023208;28;20405;-60
2022/08/23 07:23:52;;;;;;;5.53;2.42;;;19.90;98.60;;;19.88;64.90;97298.81;5021694;28;20291;-59
2022/08/23 07:26:20;;;;;;;5.22;2.50;;;20.00;98.00;;;19.97;63.93;97297.28;5022289;28;20512;-60
2022/08/23 07:28:46;;;;;;;6.63;2.40;;;20.10;97.80;;;20.07;64.07;97305.47;5023337;28;20109;-59
2022/08/23 07:31:25;;;;;;;3.45;2.10;;;20.20;97.70;;;20.20;63.52;97303.53;5021074;28;20023;-59
2022/08/23 07:33:53;;;;;;;3.97;2.33;;;20.30;97.50;;;20.35;62.10;97301.47;5023532;28;20033;-59
2022/08/23 07:36:22;;;;;;;6.55;2.75;;;20.40;97.20;;;20.51;61.21;97299.31;5020375;28;20030;-59
2022/08/23 07:38:48;;;;;;;6.53;3.67;;;20.60;96.80;;;20.65;60.20;97305.44;5022822;28;20021;-59
2022/08/23 07:41:16;;;;;;;4.32;2.60;;;20.70;96.20;;;20.85;59.68;97302.00;5020855;28;20038;-59
2022/08/23 07:43:42;;;;;;;4.18;2.50;;;20.90;96.20;;;21.00;58.97;97305.28;5022321;28;20160;-59
2022/08/23 07:46:08;;;;;;;4.78;2.53;;;21.10;95.90;;;21.21;58.30;97312.56;5005730;28;20108;-60
2022/08/23 07:48:35;;;;;;;6.82;2.70;;;21.20;95.60;;;21.37;58.04;97302.25;5022201;28;20032;-59
2022/08/23 07:51:05;;;;;;;6.03;2.63;;;21.40;95.30;;;21.56;56.78;97309.69;5023076;28;20049;-59
2022/08/23 07:53:33;;;;;;;2.75;2.13;;;21.60;94.90;;;21.69;56.65;97310.34;5021420;28;20054;-59
2022/08/23 07:56:03;;;;;;;7.38;2.45;;;21.70;94.70;;;21.85;55.81;97314.44;5004116;28;20125;-59
2022/08/23 07:58:29;;;;;;;3.20;2.25;;;21.80;94.40;;;21.96;56.04;97310.84;5039783;23;20064;-45
2022/08/23 08:00:55;;;;;;;4.32;2.95;;;21.90;94.30;;;22.00;55.20;97312.28;5039498;28;20021;-46
2022/08/23 08:03:20;;;;;;;5.65;2.85;;;22.00;93.80;;;22.04;54.04;97319.13;5039012;28;20061;-45
2022/08/23 08:05:46;;;;;;;5.72;2.67;;;22.00;93.40;;;22.19;54.33;97322.31;5040285;28;20032;-44
2022/08/23 08:08:12;;;;;;;3.40;2.30;;;22.10;93.30;;;22.28;53.90;97319.72;5036251;28;20501;-44
2022/08/23 08:10:40;;;;;;;3.70;2.22;;;22.20;93.20;;;22.38;54.04;97322.50;5031085;28;20455;-43
2022/08/23 08:13:07;;;;;;;6.78;2.92;;;22.30;93.20;;;22.48;53.07;97319.84;5033469;28;20037;-44
2022/08/23 08:15:34;;;;;;;8.07;2.80;;;22.40;92.80;;;22.62;53.41;97319.50;5032146;28;20476;-45
2022/08/23 08:18:00;;;;;;;6.18;2.63;;;22.50;92.70;;;22.69;52.64;97320.66;5016563;28;20029;-44
2022/08/23 08:20:27;;;;;;;5.78;2.58;;;22.70;92.40;;;22.77;51.21;97321.81;5032959;28;20025;-44
2022/08/23 08:22:54;;;;;;;9.02;2.47;;;22.70;91.80;;;22.88;50.57;97329.81;5032567;28;20053;-43
2022/08/23 08:25:20;;;;;;;2.97;2.42;;;22.80;91.20;;;22.97;50.79;97329.00;5032790;28;20033;-45
2022/08/23 08:27:47;;;;;;;3.83;2.42;;;22.90;91.40;;;23.11;49.30;97329.63;5033348;28;20023;-47
2022/08/23 08:30:13;;;;;;;4.00;2.58;;;23.00;90.70;;;23.19;49.56;97332.50;5031507;28;20055;-46
2022/08/23 08:32:39;;;;;;;8.18;2.30;;;23.10;90.50;;;23.28;48.42;97334.34;5033379;28;20029;-44
2022/08/23 08:35:06;;;;;;;3.65;2.33;;;23.20;89.80;;;23.37;48.30;97328.13;5034721;28;20637;-46
2022/08/23 08:37:32;;;;;;;4.88;2.25;;;23.30;89.40;;;23.44;47.71;97337.34;5031519;28;20033;-46
2022/08/23 08:39:59;;;;;;;4.22;2.45;;;23.40;88.60;;;23.55;47.41;97335.53;5033358;28;20027;-45
2022/08/23 08:42:53;;;;;;;4.70;2.45;;;23.50;88.20;;;23.66;46.19;97337.25;5032589;28;20040;-46
2022/08/23 08:45:25;;;;;;;5.07;2.40;;;23.60;86.30;;;23.77;45.58;97337.94;5016954;28;20136;-44
2022/08/23 08:48:03;;;;;;;5.65;2.85;;;23.70;85.80;;;23.86;45.29;97338.13;5017992;28;20079;-47
2022/08/23 08:50:41;;;;;;;4.35;2.47;;;23.80;84.20;;;23.95;45.29;97339.97;5000925;28;20513;-47
2022/08/23 08:53:35;;;;;;;4.90;2.50;;;23.90;84.00;;;24.03;44.57;97345.50;5016413;28;20017;-46
2022/08/23 08:56:13;;;;;;;4.25;2.38;;;24.00;82.90;;;24.12;43.92;97344.66;5015853;28;20496;-45
2022/08/23 08:58:48;;;;;;;4.57;2.22;;;24.10;81.70;;;24.14;41.53;97342.66;5031164;28;20044;-45
2022/08/23 09:01:16;;;;;;;3.17;1.83;;;24.10;78.40;;;24.19;42.09;97350.28;5014704;28;20195;-48
2022/08/23 09:03:43;;;;;;;3.70;1.65;;;24.10;78.00;;;24.25;41.96;97356.97;5028886;28;20033;-43
2022/08/23 09:06:27;;;;;;;3.13;2.08;;;24.20;78.10;;;24.29;42.78;97348.44;5016618;28;20079;-45
2022/08/23 09:09:17;;;;;;;3.17;2.38;;;24.30;78.40;;;24.36;43.24;97348.72;5016131;28;20489;-48
2022/08/23 09:12:22;;;;;;;4.30;2.15;;;24.30;79.10;;;24.48;43.35;97350.28;5031977;28;20104;-46
2022/08/23 09:15:11;;;;;;;5.13;2.70;;;24.40;79.40;;;24.53;44.66;97350.72;5013088;28;20032;-47
2022/08/23 09:17:53;;;;;;;3.38;2.60;;;24.50;81.10;;;24.62;44.69;97342.75;5033669;28;20021;-44
2022/08/23 09:20:21;;;;;;;;;;;24.50;80.60;;;24.66;45.08;97341.47;5033384;28;20460;-47
2022/08/23 09:23:03;;;;;;;7.55;2.78;;;24.60;81.70;;;24.70;44.15;97341.00;5033532;28;19925;-46
2022/08/23 09:25:29;;;;;;;7.53;2.58;;;24.60;80.90;;;24.79;44.24;97346.53;5016554;28;20191;-46
2022/08/23 09:27:55;;;;;;;2.95;2.30;;;24.70;80.50;;;24.81;43.93;97350.78;5031432;28;20021;-46
2022/08/23 09:30:21;;;;;;;4.18;2.20;;;24.80;80.00;;;24.85;43.50;97349.47;5030975;28;20022;-47
2022/08/23 09:32:51;;;;;;;6.05;2.75;;;24.80;79.60;;;24.82;43.16;97355.19;5015235;28;20075;-46
2022/08/23 09:35:24;;;;;;;5.38;2.45;;;24.80;78.50;;;24.83;43.02;97350.63;5032573;28;20460;-44
2022/08/23 09:37:53;;;;;;;3.80;2.35;;;24.80;78.00;;;24.87;41.25;97347.50;5033660;28;20025;-44
2022/08/23 09:40:36;;;;;;;4.53;2.10;;;24.80;75.10;;;24.83;40.95;97343.38;5029903;28;20040;-45
2022/08/23 09:43:16;;;;;;;2.85;1.88;;;24.80;74.50;;;24.90;40.89;97347.19;5031484;28;20292;-47
2022/08/23 09:45:48;;;;;;;4.45;2.00;;;24.90;74.70;;;25.05;40.53;97346.69;5012031;28;20045;-49
2022/08/23 09:48:35;;;;;;;2.75;1.95;;;24.90;74.10;;;25.12;39.45;97345.97;5031157;28;20034;-46
2022/08/23 09:51:16;;;;;;;3.88;1.80;;;25.00;72.80;;;25.17;38.81;97353.59;5031282;28;20036;-48
2022/08/23 09:53:49;;;;;;;2.50;1.90;;;25.10;71.20;;;25.17;39.27;97353.59;5016745;28;20029;-47
2022/08/23 09:56:23;;;;;;;5.47;2.00;;;25.10;70.90;;;25.12;37.70;97345.09;5034013;28;20048;-45
2022/08/23 09:58:52;;;;;;;2.97;1.83;;;25.10;69.80;;;25.09;38.82;97345.41;5014680;28;20033;-45
2022/08/23 10:01:28;;;;;;;6.40;2.15;;;25.10;70.00;;;25.16;38.23;97351.91;5031539;28;20327;-47
2022/08/23 10:04:15;;;;;;;3.72;2.20;;;25.10;68.70;;;25.17;38.67;97355.47;5011802;28;20485;-47
2022/08/23 10:06:45;;;;;;;2.92;1.75;;;25.10;69.60;;;25.24;38.42;97357.44;5032492;28;20021;-45
2022/08/23 10:09:31;;;;;;;3.63;1.98;;;25.20;69.30;;;25.37;38.23;97348.97;5030959;28;20017;-47
2022/08/23 10:11:59;;;;;;;4.85;1.92;;;25.30;69.00;;;25.46;37.99;97344.53;5015196;28;20021;-47
2022/08/23 10:14:28;;;;;;;2.70;1.83;;;25.40;68.40;;;25.53;37.18;97349.16;5031726;28;20107;-48
2022/08/23 10:17:25;;;;;;;2.28;1.80;;;25.40;67.10;;;25.62;36.32;97344.69;5033207;28;20025;-46
2022/08/23 10:20:59;;;;;;;4.05;1.83;;;25.50;66.20;;;25.66;36.72;97337.13;5014966;28;20481;-48
2022/08/23 10:24:15;;;;;;;2.60;1.80;;;25.60;65.50;;;25.71;36.16;97330.28;5028628;28;20485;-47
2022/08/23 10:27:02;;;;;;;5.68;2.13;;;25.60;64.10;;;25.80;36.01;97343.88;4932637;29;20129;-47
2022/08/23 10:29:47;;;;;;;3.67;1.70;;;25.70;64.20;;;25.82;34.96;97336.47;5014713;28;20126;-44
2022/08/23 10:32:54;;;;;;;1.83;1.63;;;25.80;62.70;;;25.80;34.81;97333.06;5030412;28;20507;-46
2022/08/23 10:35:41;;;;;;;3.85;1.83;;;25.80;61.60;;;25.82;35.35;97337.28;5024221;28;20156;-46
2022/08/23 10:38:42;;;;;;;3.90;1.85;;;25.70;62.80;;;25.86;35.93;97332.44;5032037;28;20033;-44
2022/08/23 10:41:21;;;;;;;2.10;1.90;;;25.70;63.30;;;25.80;34.81;97328.50;5034227;28;20033;-46
2022/08/23 10:44:18;;;;;;;3.78;1.80;;;25.80;61.60;;;25.82;35.32;97326.50;5019847;28;20021;-47
2022/08/23 10:47:27;;;;;;;3.75;2.15;;;25.70;62.20;;;25.85;35.03;97328.06;5035092;28;20069;-46
2022/08/23 10:49:54;;;;;;;3.72;2.00;;;25.80;61.50;;;25.89;35.60;97327.56;5034113;28;20106;-45
2022/08/23 10:52:33;;;;;;;2.80;1.83;;;25.80;62.60;;;25.97;34.18;97318.75;5033677;28;20574;-45